sensor_id;sensor_type;location;lat;lon;timestamp;pressure;altitude;pressure_sealevel;temperature;humidity
46001;BME280;72226;48.272;11.180;2023-08-17T00:01:53;95978.81;;;19.19;77.52
46001;BME280;72226;48.272;11.180;2023-08-17T00:04:19;95974.91;;;18.97;78.81
46001;BME280;72226;48.272;11.180;2023-08-17T00:06:44;95975.97;;;18.92;78.66
46001;BME280;72226;48.272;11.180;2023-08-17T00:09:10;95969.56;;;18.81;79.42
46001;BME280;72226;48.272;11.180;2023-08-17T00:11:37;95970.38;;;18.82;79.62
46001;BME280;72226;48.272;11.180;2023-08-17T00:14:03;95974.28;;;18.84;79.74
46001;BME280;72226;48.272;11.180;2023-08-17T00:16:29;95982.25;;;19.16;78.00
46001;BME280;72226;48.272;11.180;2023-08-17T00:18:54;95973.88;;;19.05;78.43
46001;BME280;72226;48.272;11.180;2023-08-17T00:21:20;95974.53;;;18.99;79.43
46001;BME280;72226;48.272;11.180;2023-08-17T00:23:45;95974.72;;;18.86;80.07
46001;BME280;72226;48.272;11.180;2023-08-17T00:26:10;95976.47;;;18.98;79.89
46001;BME280;72226;48.272;11.180;2023-08-17T00:28:37;95981.19;;;19.01;79.84
46001;BME280;72226;48.272;11.180;2023-08-17T00:31:02;95989.78;;;19.03;79.70
46001;BME280;72226;48.272;11.180;2023-08-17T00:33:28;95986.16;;;18.76;81.42
46001;BME280;72226;48.272;11.180;2023-08-17T00:35:53;95995.75;;;18.54;81.83
46001;BME280;72226;48.272;11.180;2023-08-17T00:38:18;95998.28;;;18.43;82.21
46001;BME280;72226;48.272;11.180;2023-08-17T00:40:44;95993.50;;;18.37;83.26
46001;BME280;72226;48.272;11.180;2023-08-17T00:43:09;95990.91;;;18.44;82.51
46001;BME280;72226;48.272;11.180;2023-08-17T00:45:35;95991.63;;;18.41;82.42
46001;BME280;72226;48.272;11.180;2023-08-17T00:48:00;95997.50;;;18.43;80.74
46001;BME280;72226;48.272;11.180;2023-08-17T00:50:27;95990.91;;;18.44;79.43
46001;BME280;72226;48.272;11.180;2023-08-17T00:52:53;95984.03;;;18.31;79.82
46001;BME280;72226;48.272;11.180;2023-08-17T00:55:20;95991.38;;;18.30;80.59
46001;BME280;72226;48.272;11.180;2023-08-17T00:57:46;95991.88;;;18.16;80.27
46001;BME280;72226;48.272;11.180;2023-08-17T01:00:13;95988.72;;;18.14;80.69
46001;BME280;72226;48.272;11.180;2023-08-17T01:02:42;95992.00;;;18.04;80.82
46001;BME280;72226;48.272;11.180;2023-08-17T01:05:08;95986.13;;;18.02;81.31
46001;BME280;72226;48.272;11.180;2023-08-17T01:07:34;95981.34;;;17.95;81.96
46001;BME280;72226;48.272;11.180;2023-08-17T01:10:00;95982.81;;;17.93;83.44
46001;BME280;72226;48.272;11.180;2023-08-17T01:12:31;95986.56;;;18.04;82.82
46001;BME280;72226;48.272;11.180;2023-08-17T01:15:13;95985.69;;;18.00;82.91
46001;BME280;72226;48.272;11.180;2023-08-17T01:17:42;95989.28;;;18.04;81.81
46001;BME280;72226;48.272;11.180;2023-08-17T01:20:10;95982.97;;;18.00;81.81
46001;BME280;72226;48.272;11.180;2023-08-17T01:22:39;95976.84;;;18.03;81.66
46001;BME280;72226;48.272;11.180;2023-08-17T01:25:06;95980.06;;;18.09;81.76
46001;BME280;72226;48.272;11.180;2023-08-17T01:27:36;95976.31;;;18.13;81.59
46001;BME280;72226;48.272;11.180;2023-08-17T01:30:02;95978.66;;;18.15;80.14
46001;BME280;72226;48.272;11.180;2023-08-17T01:32:39;95970.38;;;18.08;80.71
46001;BME280;72226;48.272;11.180;2023-08-17T01:35:14;95977.47;;;17.96;79.61
46001;BME280;72226;48.272;11.180;2023-08-17T01:37:41;95971.53;;;17.91;78.93
46001;BME280;72226;48.272;11.180;2023-08-17T01:40:08;95967.66;;;17.76;80.64
46001;BME280;72226;48.272;11.180;2023-08-17T01:42:35;95966.22;;;17.63;81.75
46001;BME280;72226;48.272;11.180;2023-08-17T01:45:01;95961.13;;;17.61;81.60
46001;BME280;72226;48.272;11.180;2023-08-17T01:47:27;95965.75;;;17.61;81.40
46001;BME280;72226;48.272;11.180;2023-08-17T01:49:52;95971.78;;;17.70;81.36
46001;BME280;72226;48.272;11.180;2023-08-17T01:52:17;95964.81;;;17.69;81.88
46001;BME280;72226;48.272;11.180;2023-08-17T01:54:43;95963.13;;;17.64;82.86
46001;BME280;72226;48.272;11.180;2023-08-17T01:57:08;95966.88;;;17.75;81.87
46001;BME280;72226;48.272;11.180;2023-08-17T01:59:33;95973.91;;;17.92;81.03
46001;BME280;72226;48.272;11.180;2023-08-17T02:01:59;95967.78;;;17.79;83.24
46001;BME280;72226;48.272;11.180;2023-08-17T02:04:25;95972.69;;;17.74;83.93
46001;BME280;72226;48.272;11.180;2023-08-17T02:06:50;95972.16;;;17.52;84.56
46001;BME280;72226;48.272;11.180;2023-08-17T02:09:16;95970.84;;;17.30;82.69
46001;BME280;72226;48.272;11.180;2023-08-17T02:11:41;95967.28;;;17.26;82.08
46001;BME280;72226;48.272;11.180;2023-08-17T02:14:06;95958.84;;;17.31;82.68
46001;BME280;72226;48.272;11.180;2023-08-17T02:16:32;95967.44;;;17.33;82.75
46001;BME280;72226;48.272;11.180;2023-08-17T02:18:57;95962.44;;;17.20;84.36
46001;BME280;72226;48.272;11.180;2023-08-17T02:21:22;95952.56;;;17.11;81.91
46001;BME280;72226;48.272;11.180;2023-08-17T02:23:48;95950.56;;;17.08;80.91
46001;BME280;72226;48.272;11.180;2023-08-17T02:26:13;95955.63;;;17.10;82.62
46001;BME280;72226;48.272;11.180;2023-08-17T02:28:39;95953.81;;;17.14;84.11
46001;BME280;72226;48.272;11.180;2023-08-17T02:31:04;95955.97;;;17.24;84.26
46001;BME280;72226;48.272;11.180;2023-08-17T02:33:31;95957.13;;;17.23;84.11
46001;BME280;72226;48.272;11.180;2023-08-17T02:35:58;95954.91;;;17.29;84.63
46001;BME280;72226;48.272;11.180;2023-08-17T02:38:23;95958.44;;;17.45;84.84
46001;BME280;72226;48.272;11.180;2023-08-17T02:40:49;95966.19;;;17.47;84.94
46001;BME280;72226;48.272;11.180;2023-08-17T02:43:15;95967.97;;;17.39;85.77
46001;BME280;72226;48.272;11.180;2023-08-17T02:45:40;95961.06;;;17.42;83.88
46001;BME280;72226;48.272;11.180;2023-08-17T02:48:06;95972.31;;;17.44;81.92
46001;BME280;72226;48.272;11.180;2023-08-17T02:50:31;95967.09;;;17.35;81.43
46001;BME280;72226;48.272;11.180;2023-08-17T02:52:56;95967.59;;;17.41;81.34
46001;BME280;72226;48.272;11.180;2023-08-17T02:55:22;95966.13;;;17.27;82.02
46001;BME280;72226;48.272;11.180;2023-08-17T02:57:47;95972.00;;;17.29;82.44
46001;BME280;72226;48.272;11.180;2023-08-17T03:00:13;95962.72;;;17.62;81.51
46001;BME280;72226;48.272;11.180;2023-08-17T03:02:38;95958.97;;;17.35;82.76
46001;BME280;72226;48.272;11.180;2023-08-17T03:05:04;95965.59;;;17.22;83.25
46001;BME280;72226;48.272;11.180;2023-08-17T03:07:30;95970.06;;;17.14;83.99
46001;BME280;72226;48.272;11.180;2023-08-17T03:09:55;95966.91;;;17.12;84.05
46001;BME280;72226;48.272;11.180;2023-08-17T03:12:20;95967.59;;;17.25;82.68
46001;BME280;72226;48.272;11.180;2023-08-17T03:14:46;95962.53;;;17.23;81.34
46001;BME280;72226;48.272;11.180;2023-08-17T03:17:11;95958.53;;;17.17;82.32
46001;BME280;72226;48.272;11.180;2023-08-17T03:19:36;95964.81;;;17.21;82.31
46001;BME280;72226;48.272;11.180;2023-08-17T03:22:02;95965.31;;;17.11;82.78
46001;BME280;72226;48.272;11.180;2023-08-17T03:24:27;95969.69;;;17.00;82.78
46001;BME280;72226;48.272;11.180;2023-08-17T03:26:53;95973.50;;;16.99;82.90
46001;BME280;72226;48.272;11.180;2023-08-17T03:29:18;95963.38;;;16.96;83.34
46001;BME280;72226;48.272;11.180;2023-08-17T03:31:43;95968.31;;;16.78;85.19
46001;BME280;72226;48.272;11.180;2023-08-17T03:34:09;95963.78;;;16.82;85.49
46001;BME280;72226;48.272;11.180;2023-08-17T03:36:34;95972.59;;;16.79;84.23
46001;BME280;72226;48.272;11.180;2023-08-17T03:38:59;95966.41;;;16.78;84.32
46001;BME280;72226;48.272;11.180;2023-08-17T03:41:25;95963.47;;;16.71;85.15
46001;BME280;72226;48.272;11.180;2023-08-17T03:43:50;95964.59;;;16.70;85.22
46001;BME280;72226;48.272;11.180;2023-08-17T03:46:16;95964.69;;;16.74;84.93
46001;BME280;72226;48.272;11.180;2023-08-17T03:48:41;95962.34;;;16.72;85.06
46001;BME280;72226;48.272;11.180;2023-08-17T03:51:06;95963.25;;;16.76;85.30
46001;BME280;72226;48.272;11.180;2023-08-17T03:53:32;95963.00;;;16.69;85.69
46001;BME280;72226;48.272;11.180;2023-08-17T03:55:57;95965.41;;;17.15;83.00
46001;BME280;72226;48.272;11.180;2023-08-17T03:58:23;95960.41;;;17.01;81.55
46001;BME280;72226;48.272;11.180;2023-08-17T04:00:52;95959.69;;;16.88;82.10
46001;BME280;72226;48.272;11.180;2023-08-17T04:03:18;95964.38;;;16.75;82.82
46001;BME280;72226;48.272;11.180;2023-08-17T04:05:44;95970.69;;;16.79;82.22
46001;BME280;72226;48.272;11.180;2023-08-17T04:08:09;95968.69;;;16.64;84.38
46001;BME280;72226;48.272;11.180;2023-08-17T04:10:35;95975.03;;;16.56;85.24
46001;BME280;72226;48.272;11.180;2023-08-17T04:13:00;95968.16;;;16.58;85.64
46001;BME280;72226;48.272;11.180;2023-08-17T04:15:25;95975.88;;;16.44;85.99
46001;BME280;72226;48.272;11.180;2023-08-17T04:17:51;95980.50;;;16.43;85.54
46001;BME280;72226;48.272;11.180;2023-08-17T04:20:16;95982.97;;;16.49;85.50
46001;BME280;72226;48.272;11.180;2023-08-17T04:22:43;95988.03;;;16.50;85.44
46001;BME280;72226;48.272;11.180;2023-08-17T04:25:08;95980.25;;;16.49;86.11
46001;BME280;72226;48.272;11.180;2023-08-17T04:27:34;95981.72;;;16.74;86.02
46001;BME280;72226;48.272;11.180;2023-08-17T04:30:00;95983.13;;;16.96;85.04
46001;BME280;72226;48.272;11.180;2023-08-17T04:32:25;95982.59;;;16.91;84.62
46001;BME280;72226;48.272;11.180;2023-08-17T04:34:51;95979.94;;;16.78;85.37
46001;BME280;72226;48.272;11.180;2023-08-17T04:37:16;95980.47;;;16.84;84.17
46001;BME280;72226;48.272;11.180;2023-08-17T04:39:42;95987.22;;;16.90;84.66
46001;BME280;72226;48.272;11.180;2023-08-17T04:42:09;95986.78;;;16.88;83.79
46001;BME280;72226;48.272;11.180;2023-08-17T04:44:34;95986.53;;;16.93;84.83
46001;BME280;72226;48.272;11.180;2023-08-17T04:47:00;95985.16;;;16.99;84.35
46001;BME280;72226;48.272;11.180;2023-08-17T04:49:25;95983.16;;;17.12;84.20
46001;BME280;72226;48.272;11.180;2023-08-17T04:51:51;95990.50;;;17.27;84.06
46001;BME280;72226;48.272;11.180;2023-08-17T04:54:17;95992.53;;;17.46;83.02
46001;BME280;72226;48.272;11.180;2023-08-17T04:56:42;95990.63;;;17.63;82.20
46001;BME280;72226;48.272;11.180;2023-08-17T04:59:08;95995.50;;;17.73;82.06
46001;BME280;72226;48.272;11.180;2023-08-17T05:01:34;95990.38;;;17.84;81.98
46001;BME280;72226;48.272;11.180;2023-08-17T05:03:59;96000.56;;;18.06;80.84
46001;BME280;72226;48.272;11.180;2023-08-17T05:06:24;96005.00;;;18.14;81.03
46001;BME280;72226;48.272;11.180;2023-08-17T05:08:52;96005.06;;;18.34;80.45
46001;BME280;72226;48.272;11.180;2023-08-17T05:11:18;95995.91;;;18.42;80.20
46001;BME280;72226;48.272;11.180;2023-08-17T05:13:43;95996.78;;;18.65;79.80
46001;BME280;72226;48.272;11.180;2023-08-17T05:16:08;95994.81;;;18.82;78.86
46001;BME280;72226;48.272;11.180;2023-08-17T05:18:34;95996.34;;;19.02;78.21
46001;BME280;72226;48.272;11.180;2023-08-17T05:20:59;95991.66;;;19.22;77.62
46001;BME280;72226;48.272;11.180;2023-08-17T05:23:25;95995.25;;;19.49;76.74
46001;BME280;72226;48.272;11.180;2023-08-17T05:25:51;96003.47;;;19.76;74.76
46001;BME280;72226;48.272;11.180;2023-08-17T05:28:16;96006.59;;;20.01;73.84
46001;BME280;72226;48.272;11.180;2023-08-17T05:30:41;96007.50;;;20.09;72.78
46001;BME280;72226;48.272;11.180;2023-08-17T05:33:07;96012.53;;;20.37;72.11
46001;BME280;72226;48.272;11.180;2023-08-17T05:35:32;96010.19;;;20.35;71.91
46001;BME280;72226;48.272;11.180;2023-08-17T05:37:58;96020.13;;;20.50;71.88
46001;BME280;72226;48.272;11.180;2023-08-17T05:40:23;96024.22;;;20.64;71.58
46001;BME280;72226;48.272;11.180;2023-08-17T05:42:48;96018.13;;;20.74;71.51
46001;BME280;72226;48.272;11.180;2023-08-17T05:45:14;96016.75;;;20.91;71.57
46001;BME280;72226;48.272;11.180;2023-08-17T05:47:39;96016.97;;;21.09;71.13
46001;BME280;72226;48.272;11.180;2023-08-17T05:50:05;96018.34;;;21.29;70.44
46001;BME280;72226;48.272;11.180;2023-08-17T05:52:31;96023.22;;;21.47;69.60
46001;BME280;72226;48.272;11.180;2023-08-17T05:54:56;96007.06;;;21.68;68.85
46001;BME280;72226;48.272;11.180;2023-08-17T05:57:22;96009.16;;;21.89;68.73
46001;BME280;72226;48.272;11.180;2023-08-17T05:59:47;96003.94;;;22.18;68.18
46001;BME280;72226;48.272;11.180;2023-08-17T06:02:13;96003.97;;;22.25;67.85
46001;BME280;72226;48.272;11.180;2023-08-17T06:04:38;96008.34;;;22.37;67.46
46001;BME280;72226;48.272;11.180;2023-08-17T06:07:04;96002.63;;;22.60;66.83
46001;BME280;72226;48.272;11.180;2023-08-17T06:09:29;96008.13;;;22.70;66.23
46001;BME280;72226;48.272;11.180;2023-08-17T06:11:54;96004.69;;;22.84;65.77
46001;BME280;72226;48.272;11.180;2023-08-17T06:14:20;95999.66;;;22.97;65.71
46001;BME280;72226;48.272;11.180;2023-08-17T06:16:45;96002.38;;;22.93;66.58
46001;BME280;72226;48.272;11.180;2023-08-17T06:19:11;96009.88;;;23.07;66.43
46001;BME280;72226;48.272;11.180;2023-08-17T06:21:36;96008.34;;;23.24;66.41
46001;BME280;72226;48.272;11.180;2023-08-17T06:24:01;96005.63;;;23.42;65.63
46001;BME280;72226;48.272;11.180;2023-08-17T06:26:27;96002.91;;;23.42;65.49
46001;BME280;72226;48.272;11.180;2023-08-17T06:28:52;96012.72;;;23.57;64.93
46001;BME280;72226;48.272;11.180;2023-08-17T06:31:18;96011.56;;;23.80;64.59
46001;BME280;72226;48.272;11.180;2023-08-17T06:33:43;96010.78;;;24.04;63.22
46001;BME280;72226;48.272;11.180;2023-08-17T06:36:08;96007.25;;;24.11;63.28
46001;BME280;72226;48.272;11.180;2023-08-17T06:38:34;96001.34;;;24.34;62.83
46001;BME280;72226;48.272;11.180;2023-08-17T06:40:59;96002.53;;;24.26;62.39
46001;BME280;72226;48.272;11.180;2023-08-17T06:43:25;95997.06;;;24.19;61.87
46001;BME280;72226;48.272;11.180;2023-08-17T06:45:50;95996.25;;;24.40;61.22
46001;BME280;72226;48.272;11.180;2023-08-17T06:48:15;95997.00;;;24.58;60.60
46001;BME280;72226;48.272;11.180;2023-08-17T06:50:41;96001.31;;;24.63;59.06
46001;BME280;72226;48.272;11.180;2023-08-17T06:53:07;95991.06;;;24.77;59.65
46001;BME280;72226;48.272;11.180;2023-08-17T06:55:32;96004.34;;;24.90;59.29
46001;BME280;72226;48.272;11.180;2023-08-17T06:57:58;95998.72;;;25.25;57.98
46001;BME280;72226;48.272;11.180;2023-08-17T07:00:23;96000.31;;;25.19;57.26
46001;BME280;72226;48.272;11.180;2023-08-17T07:02:48;96007.75;;;25.12;58.26
46001;BME280;72226;48.272;11.180;2023-08-17T07:05:15;95993.25;;;25.18;57.82
46001;BME280;72226;48.272;11.180;2023-08-17T07:07:40;96000.22;;;25.30;57.93
46001;BME280;72226;48.272;11.180;2023-08-17T07:10:06;95997.94;;;25.18;57.67
46001;BME280;72226;48.272;11.180;2023-08-17T07:12:32;95997.13;;;25.24;57.93
46001;BME280;72226;48.272;11.180;2023-08-17T07:14:57;96011.94;;;25.41;57.69
46001;BME280;72226;48.272;11.180;2023-08-17T07:17:23;96017.56;;;25.09;57.70
46001;BME280;72226;48.272;11.180;2023-08-17T07:19:48;96011.63;;;25.28;58.23
46001;BME280;72226;48.272;11.180;2023-08-17T07:22:14;96014.63;;;25.52;57.26
46001;BME280;72226;48.272;11.180;2023-08-17T07:24:39;96013.78;;;25.59;57.60
46001;BME280;72226;48.272;11.180;2023-08-17T07:27:04;96015.97;;;25.85;56.81
46001;BME280;72226;48.272;11.180;2023-08-17T07:29:30;96012.28;;;26.06;56.38
46001;BME280;72226;48.272;11.180;2023-08-17T07:31:55;96018.78;;;26.23;55.76
46001;BME280;72226;48.272;11.180;2023-08-17T07:34:24;96018.03;;;26.19;55.40
46001;BME280;72226;48.272;11.180;2023-08-17T07:36:49;96016.00;;;26.27;56.05
46001;BME280;72226;48.272;11.180;2023-08-17T07:39:17;96028.13;;;25.81;57.13
46001;BME280;72226;48.272;11.180;2023-08-17T07:41:44;96028.34;;;25.48;58.15
46001;BME280;72226;48.272;11.180;2023-08-17T07:44:19;96031.34;;;25.72;57.70
46001;BME280;72226;48.272;11.180;2023-08-17T07:46:53;96026.91;;;25.92;56.97
46001;BME280;72226;48.272;11.180;2023-08-17T07:49:19;96027.50;;;26.14;55.90
46001;BME280;72226;48.272;11.180;2023-08-17T07:51:45;96029.16;;;26.46;54.85
46001;BME280;72226;48.272;11.180;2023-08-17T07:54:11;96029.44;;;26.59;54.67
46001;BME280;72226;48.272;11.180;2023-08-17T07:56:40;96030.78;;;26.81;53.65
46001;BME280;72226;48.272;11.180;2023-08-17T07:59:05;96026.44;;;26.84;54.02
46001;BME280;72226;48.272;11.180;2023-08-17T08:01:31;96027.38;;;27.01;54.00
46001;BME280;72226;48.272;11.180;2023-08-17T08:03:56;96033.16;;;27.10;52.84
46001;BME280;72226;48.272;11.180;2023-08-17T08:06:21;96027.06;;;26.61;54.59
46001;BME280;72226;48.272;11.180;2023-08-17T08:08:48;96024.66;;;26.25;55.28
46001;BME280;72226;48.272;11.180;2023-08-17T08:11:13;96027.69;;;26.34;54.68
46001;BME280;72226;48.272;11.180;2023-08-17T08:13:48;96021.13;;;26.66;54.78
46001;BME280;72226;48.272;11.180;2023-08-17T08:16:13;96021.72;;;26.84;54.44
46001;BME280;72226;48.272;11.180;2023-08-17T08:18:39;96012.88;;;26.66;55.99
46001;BME280;72226;48.272;11.180;2023-08-17T08:21:10;96017.91;;;27.05;54.41
46001;BME280;72226;48.272;11.180;2023-08-17T08:23:35;96011.09;;;27.17;53.32
46001;BME280;72226;48.272;11.180;2023-08-17T08:26:00;96009.97;;;26.80;53.23
46001;BME280;72226;48.272;11.180;2023-08-17T08:28:26;96015.91;;;26.75;54.11
46001;BME280;72226;48.272;11.180;2023-08-17T08:30:52;96013.56;;;27.08;53.71
46001;BME280;72226;48.272;11.180;2023-08-17T08:33:17;96013.44;;;27.19;54.22
46001;BME280;72226;48.272;11.180;2023-08-17T08:35:43;96017.84;;;27.43;52.73
46001;BME280;72226;48.272;11.180;2023-08-17T08:38:08;96016.53;;;27.51;52.12
46001;BME280;72226;48.272;11.180;2023-08-17T08:40:36;96013.88;;;27.71;51.72
46001;BME280;72226;48.272;11.180;2023-08-17T08:43:02;96014.00;;;27.64;51.39
46001;BME280;72226;48.272;11.180;2023-08-17T08:45:29;96018.03;;;26.95;53.32
46001;BME280;72226;48.272;11.180;2023-08-17T08:47:56;96009.44;;;26.89;53.22
46001;BME280;72226;48.272;11.180;2023-08-17T08:50:24;96014.28;;;26.81;54.15
46001;BME280;72226;48.272;11.180;2023-08-17T08:52:59;96017.13;;;27.05;53.97
46001;BME280;72226;48.272;11.180;2023-08-17T08:55:28;96020.84;;;27.25;52.58
46001;BME280;72226;48.272;11.180;2023-08-17T08:57:56;96021.94;;;27.31;52.53
46001;BME280;72226;48.272;11.180;2023-08-17T09:00:22;96019.72;;;27.50;52.47
46001;BME280;72226;48.272;11.180;2023-08-17T09:02:48;96020.44;;;27.81;51.29
46001;BME280;72226;48.272;11.180;2023-08-17T09:05:14;96019.06;;;27.93;50.54
46001;BME280;72226;48.272;11.180;2023-08-17T09:07:42;96009.50;;;27.74;51.61
46001;BME280;72226;48.272;11.180;2023-08-17T09:10:09;96010.41;;;27.94;50.01
46001;BME280;72226;48.272;11.180;2023-08-17T09:12:35;96009.72;;;27.87;51.71
46001;BME280;72226;48.272;11.180;2023-08-17T09:15:00;96005.41;;;27.31;52.35
46001;BME280;72226;48.272;11.180;2023-08-17T09:17:27;96009.22;;;27.07;53.36
46001;BME280;72226;48.272;11.180;2023-08-17T09:19:52;96010.47;;;27.02;53.50
46001;BME280;72226;48.272;11.180;2023-08-17T09:22:39;96006.41;;;27.45;52.42
46001;BME280;72226;48.272;11.180;2023-08-17T09:25:05;96004.00;;;27.47;51.50
46001;BME280;72226;48.272;11.180;2023-08-17T09:27:34;96001.06;;;27.61;51.79
46001;BME280;72226;48.272;11.180;2023-08-17T09:30:08;96000.75;;;27.83;51.62
46001;BME280;72226;48.272;11.180;2023-08-17T09:32:34;96000.38;;;28.04;51.03
46001;BME280;72226;48.272;11.180;2023-08-17T09:35:03;96000.75;;;28.06;51.54
46001;BME280;72226;48.272;11.180;2023-08-17T09:37:31;95994.88;;;28.28;50.55
46001;BME280;72226;48.272;11.180;2023-08-17T09:39:56;95998.53;;;28.21;50.73
46001;BME280;72226;48.272;11.180;2023-08-17T09:42:22;95993.44;;;28.19;50.46
46001;BME280;72226;48.272;11.180;2023-08-17T09:44:51;95990.50;;;28.30;49.80
46001;BME280;72226;48.272;11.180;2023-08-17T09:47:17;95991.88;;;28.42;50.22
46001;BME280;72226;48.272;11.180;2023-08-17T09:49:53;95995.06;;;28.60;49.87
46001;BME280;72226;48.272;11.180;2023-08-17T09:52:19;95990.81;;;28.56;49.43
46001;BME280;72226;48.272;11.180;2023-08-17T09:54:45;95990.81;;;28.56;49.62
46001;BME280;72226;48.272;11.180;2023-08-17T09:57:12;95987.28;;;28.32;50.67
46001;BME280;72226;48.272;11.180;2023-08-17T09:59:38;95991.53;;;28.60;49.30
46001;BME280;72226;48.272;11.180;2023-08-17T10:02:14;95981.81;;;28.72;49.12
46001;BME280;72226;48.272;11.180;2023-08-17T10:04:42;95980.97;;;28.75;47.12
46001;BME280;72226;48.272;11.180;2023-08-17T10:07:09;95986.50;;;28.75;47.95
46001;BME280;72226;48.272;11.180;2023-08-17T10:09:42;95986.38;;;28.82;47.91
46001;BME280;72226;48.272;11.180;2023-08-17T10:12:15;95977.72;;;29.00;48.39
46001;BME280;72226;48.272;11.180;2023-08-17T10:14:45;95973.28;;;29.06;48.03
46001;BME280;72226;48.272;11.180;2023-08-17T10:17:18;95978.56;;;29.17;48.42
46001;BME280;72226;48.272;11.180;2023-08-17T10:19:56;95979.69;;;29.19;47.97
46001;BME280;72226;48.272;11.180;2023-08-17T10:22:48;95978.03;;;29.05;48.13
46001;BME280;72226;48.272;11.180;2023-08-17T10:25:16;95976.69;;;28.74;49.21
46001;BME280;72226;48.272;11.180;2023-08-17T10:27:42;95982.56;;;28.76;50.13
46001;BME280;72226;48.272;11.180;2023-08-17T10:30:11;95977.09;;;28.92;49.55
46001;BME280;72226;48.272;11.180;2023-08-17T10:32:37;95982.88;;;28.98;49.14
46001;BME280;72226;48.272;11.180;2023-08-17T10:35:03;95980.19;;;28.94;49.68
46001;BME280;72226;48.272;11.180;2023-08-17T10:37:30;95985.53;;;28.85;49.84
46001;BME280;72226;48.272;11.180;2023-08-17T10:39:56;95973.56;;;28.92;49.22
46001;BME280;72226;48.272;11.180;2023-08-17T10:42:36;95982.88;;;28.98;49.00
46001;BME280;72226;48.272;11.180;2023-08-17T10:47:47;95983.41;;;28.73;49.83
46001;BME280;72226;48.272;11.180;2023-08-17T10:55:16;95982.19;;;29.13;50.56
46001;BME280;72226;48.272;11.180;2023-08-17T10:57:47;95978.06;;;29.22;48.20
46001;BME280;72226;48.272;11.180;2023-08-17T11:00:17;95978.16;;;29.34;48.37
46001;BME280;72226;48.272;11.180;2023-08-17T11:02:53;95974.41;;;29.45;47.31
46001;BME280;72226;48.272;11.180;2023-08-17T11:07:59;95975.06;;;29.69;47.05
46001;BME280;72226;48.272;11.180;2023-08-17T11:12:53;95974.31;;;29.48;47.24
46001;BME280;72226;48.272;11.180;2023-08-17T11:15:22;95967.63;;;29.66;46.38
46001;BME280;72226;48.272;11.180;2023-08-17T11:17:47;95973.75;;;29.73;46.61
46001;BME280;72226;48.272;11.180;2023-08-17T11:20:13;95964.09;;;29.65;46.84
46001;BME280;72226;48.272;11.180;2023-08-17T11:22:38;95961.56;;;29.02;48.67
46001;BME280;72226;48.272;11.180;2023-08-17T11:25:04;95964.03;;;29.32;47.57
46001;BME280;72226;48.272;11.180;2023-08-17T11:27:30;95956.59;;;29.46;46.32
46001;BME280;72226;48.272;11.180;2023-08-17T11:29:56;95950.56;;;29.51;46.41
46001;BME280;72226;48.272;11.180;2023-08-17T11:32:21;95954.38;;;29.41;46.54
46001;BME280;72226;48.272;11.180;2023-08-17T11:34:47;95959.03;;;29.44;46.44
46001;BME280;72226;48.272;11.180;2023-08-17T11:37:12;95955.47;;;29.43;47.25
46001;BME280;72226;48.272;11.180;2023-08-17T11:39:37;95954.16;;;29.31;47.17
46001;BME280;72226;48.272;11.180;2023-08-17T11:42:03;95945.16;;;29.47;47.74
46001;BME280;72226;48.272;11.180;2023-08-17T11:44:29;95949.75;;;29.18;47.92
46001;BME280;72226;48.272;11.180;2023-08-17T11:46:54;95949.09;;;29.30;47.21
46001;BME280;72226;48.272;11.180;2023-08-17T11:49:20;95937.81;;;29.57;45.72
46001;BME280;72226;48.272;11.180;2023-08-17T11:51:46;95938.44;;;29.65;47.66
46001;BME280;72226;48.272;11.180;2023-08-17T11:54:11;95936.38;;;29.16;49.43
46001;BME280;72226;48.272;11.180;2023-08-17T11:56:37;95935.19;;;29.17;49.52
46001;BME280;72226;48.272;11.180;2023-08-17T11:59:13;95930.19;;;29.45;46.77
46001;BME280;72226;48.272;11.180;2023-08-17T12:01:39;95929.94;;;29.55;46.98
46001;BME280;72226;48.272;11.180;2023-08-17T12:04:06;95935.88;;;29.21;46.78
46001;BME280;72226;48.272;11.180;2023-08-17T12:06:31;95932.72;;;28.83;47.43
46001;BME280;72226;48.272;11.180;2023-08-17T12:08:57;95927.84;;;28.90;47.53
46001;BME280;72226;48.272;11.180;2023-08-17T12:11:25;95936.41;;;29.32;46.20
46001;BME280;72226;48.272;11.180;2023-08-17T12:13:52;95925.19;;;29.40;43.83
46001;BME280;72226;48.272;11.180;2023-08-17T12:16:18;95915.78;;;29.53;42.12
46001;BME280;72226;48.272;11.180;2023-08-17T12:18:49;95908.91;;;29.62;41.01
46001;BME280;72226;48.272;11.180;2023-08-17T12:21:15;95912.44;;;29.62;44.49
46001;BME280;72226;48.272;11.180;2023-08-17T12:23:41;95906.66;;;29.73;43.64
46001;BME280;72226;48.272;11.180;2023-08-17T12:26:08;95904.59;;;29.77;45.66
46001;BME280;72226;48.272;11.180;2023-08-17T12:28:33;95903.22;;;29.69;42.97
46001;BME280;72226;48.272;11.180;2023-08-17T12:31:00;95894.81;;;29.72;41.27
46001;BME280;72226;48.272;11.180;2023-08-17T12:33:26;95901.28;;;29.82;44.61
46001;BME280;72226;48.272;11.180;2023-08-17T12:35:51;95882.78;;;29.95;42.41
46001;BME280;72226;48.272;11.180;2023-08-17T12:38:17;95881.59;;;30.09;42.08
46001;BME280;72226;48.272;11.180;2023-08-17T12:40:42;95880.19;;;29.55;40.49
46001;BME280;72226;48.272;11.180;2023-08-17T12:43:07;95870.38;;;29.54;42.55
46001;BME280;72226;48.272;11.180;2023-08-17T12:45:33;95876.59;;;29.75;43.67
46001;BME280;72226;48.272;11.180;2023-08-17T12:47:59;95865.22;;;30.02;41.87
46001;BME280;72226;48.272;11.180;2023-08-17T12:50:25;95865.72;;;30.13;42.59
46001;BME280;72226;48.272;11.180;2023-08-17T12:52:50;95862.72;;;30.08;43.32
46001;BME280;72226;48.272;11.180;2023-08-17T12:55:16;95866.78;;;30.32;41.26
46001;BME280;72226;48.272;11.180;2023-08-17T12:57:41;95863.59;;;30.34;42.70
46001;BME280;72226;48.272;11.180;2023-08-17T13:00:07;95873.41;;;30.22;42.94